sensor_id;sensor_type;location;lat;lon;timestamp;P1;durP1;ratioP1;P2;durP2;ratioP2
2406;SDS011;37709;53.480;9.688;2022-11-18T00:01:18;9.40;;;6.97;;
2406;SDS011;37709;53.480;9.688;2022-11-18T00:03:49;10.83;;;8.83;;
2406;SDS011;37709;53.480;9.688;2022-11-18T00:06:18;12.53;;;8.90;;
2406;SDS011;37709;53.480;9.688;2022-11-18T00:08:46;9.63;;;7.50;;
2406;SDS011;37709;53.480;9.688;2022-11-18T00:14:28;10.60;;;8.53;;
2406;SDS011;37709;53.480;9.688;2022-11-18T00:16:56;11.90;;;9.10;;
2406;SDS011;37709;53.480;9.688;2022-11-18T00:19:27;11.03;;;8.10;;
2406;SDS011;37709;53.480;9.688;2022-11-18T00:21:56;10.63;;;8.10;;
2406;SDS011;37709;53.480;9.688;2022-11-18T00:24:24;8.80;;;7.10;;
2406;SDS011;37709;53.480;9.688;2022-11-18T00:26:52;11.87;;;8.70;;
2406;SDS011;37709;53.480;9.688;2022-11-18T00:29:20;11.90;;;8.90;;
2406;SDS011;37709;53.480;9.688;2022-11-18T00:31:48;12.27;;;8.53;;
2406;SDS011;37709;53.480;9.688;2022-11-18T00:34:16;11.53;;;8.53;;
2406;SDS011;37709;53.480;9.688;2022-11-18T00:36:45;13.47;;;9.60;;
2406;SDS011;37709;53.480;9.688;2022-11-18T00:39:15;11.20;;;8.70;;
2406;SDS011;37709;53.480;9.688;2022-11-18T00:41:44;8.97;;;8.00;;
2406;SDS011;37709;53.480;9.688;2022-11-18T00:44:31;12.47;;;10.33;;
2406;SDS011;37709;53.480;9.688;2022-11-18T00:46:58;13.00;;;9.03;;
2406;SDS011;37709;53.480;9.688;2022-11-18T00:49:25;9.10;;;7.20;;
2406;SDS011;37709;53.480;9.688;2022-11-18T00:51:52;13.53;;;10.00;;
2406;SDS011;37709;53.480;9.688;2022-11-18T00:54:20;13.37;;;9.63;;
2406;SDS011;37709;53.480;9.688;2022-11-18T00:56:47;13.07;;;10.23;;
2406;SDS011;37709;53.480;9.688;2022-11-18T00:59:14;13.60;;;9.47;;
2406;SDS011;37709;53.480;9.688;2022-11-18T01:01:43;15.67;;;10.77;;
2406;SDS011;37709;53.480;9.688;2022-11-18T01:04:15;10.60;;;8.50;;
2406;SDS011;37709;53.480;9.688;2022-11-18T01:06:43;11.63;;;8.80;;
2406;SDS011;37709;53.480;9.688;2022-11-18T01:09:10;11.67;;;8.30;;
2406;SDS011;37709;53.480;9.688;2022-11-18T01:11:37;12.27;;;8.83;;
2406;SDS011;37709;53.480;9.688;2022-11-18T01:14:23;14.53;;;10.00;;
2406;SDS011;37709;53.480;9.688;2022-11-18T01:19:44;10.13;;;6.27;;
2406;SDS011;37709;53.480;9.688;2022-11-18T01:22:11;12.93;;;9.40;;
2406;SDS011;37709;53.480;9.688;2022-11-18T01:24:38;11.17;;;8.93;;
2406;SDS011;37709;53.480;9.688;2022-11-18T01:27:06;14.43;;;10.57;;
2406;SDS011;37709;53.480;9.688;2022-11-18T01:29:33;10.70;;;7.37;;
2406;SDS011;37709;53.480;9.688;2022-11-18T01:32:01;12.47;;;9.57;;
2406;SDS011;37709;53.480;9.688;2022-11-18T01:34:48;13.53;;;9.03;;
2406;SDS011;37709;53.480;9.688;2022-11-18T01:37:17;12.53;;;8.53;;
2406;SDS011;37709;53.480;9.688;2022-11-18T01:39:44;13.13;;;10.40;;
2406;SDS011;37709;53.480;9.688;2022-11-18T01:42:12;16.00;;;10.27;;
2406;SDS011;37709;53.480;9.688;2022-11-18T01:47:39;15.97;;;8.87;;
2406;SDS011;37709;53.480;9.688;2022-11-18T01:50:15;15.17;;;10.73;;
2406;SDS011;37709;53.480;9.688;2022-11-18T01:52:45;16.13;;;10.20;;
2406;SDS011;37709;53.480;9.688;2022-11-18T01:58:14;14.73;;;9.30;;
2406;SDS011;37709;53.480;9.688;2022-11-18T02:00:51;15.47;;;10.70;;
2406;SDS011;37709;53.480;9.688;2022-11-18T02:03:19;13.80;;;10.03;;
2406;SDS011;37709;53.480;9.688;2022-11-18T02:05:50;15.93;;;11.13;;
2406;SDS011;37709;53.480;9.688;2022-11-18T02:08:19;14.77;;;11.20;;
2406;SDS011;37709;53.480;9.688;2022-11-18T02:10:48;14.03;;;11.20;;
2406;SDS011;37709;53.480;9.688;2022-11-18T02:13:16;14.37;;;9.73;;
2406;SDS011;37709;53.480;9.688;2022-11-18T02:16:05;13.57;;;9.70;;
2406;SDS011;37709;53.480;9.688;2022-11-18T02:18:44;15.00;;;10.60;;
2406;SDS011;37709;53.480;9.688;2022-11-18T02:24:40;15.13;;;10.80;;
2406;SDS011;37709;53.480;9.688;2022-11-18T02:27:26;12.27;;;8.10;;
2406;SDS011;37709;53.480;9.688;2022-11-18T02:30:15;15.67;;;11.70;;
2406;SDS011;37709;53.480;9.688;2022-11-18T02:32:48;13.43;;;10.40;;
2406;SDS011;37709;53.480;9.688;2022-11-18T02:35:46;14.90;;;10.57;;
2406;SDS011;37709;53.480;9.688;2022-11-18T02:38:28;12.90;;;9.13;;
2406;SDS011;37709;53.480;9.688;2022-11-18T02:41:04;16.70;;;12.20;;
2406;SDS011;37709;53.480;9.688;2022-11-18T02:43:57;13.03;;;10.23;;
2406;SDS011;37709;53.480;9.688;2022-11-18T02:46:28;13.60;;;9.53;;
2406;SDS011;37709;53.480;9.688;2022-11-18T02:49:04;16.13;;;11.13;;
2406;SDS011;37709;53.480;9.688;2022-11-18T02:51:35;14.73;;;11.30;;
2406;SDS011;37709;53.480;9.688;2022-11-18T02:54:06;14.80;;;10.63;;
2406;SDS011;37709;53.480;9.688;2022-11-18T02:56:36;13.37;;;10.30;;
2406;SDS011;37709;53.480;9.688;2022-11-18T02:59:04;16.63;;;11.77;;
2406;SDS011;37709;53.480;9.688;2022-11-18T03:01:31;16.07;;;11.23;;
2406;SDS011;37709;53.480;9.688;2022-11-18T03:04:01;10.07;;;7.63;;
2406;SDS011;37709;53.480;9.688;2022-11-18T03:06:30;16.33;;;11.47;;
2406;SDS011;37709;53.480;9.688;2022-11-18T03:09:21;15.47;;;10.33;;
2406;SDS011;37709;53.480;9.688;2022-11-18T03:14:39;15.00;;;11.03;;
2406;SDS011;37709;53.480;9.688;2022-11-18T03:20:25;17.53;;;12.80;;
2406;SDS011;37709;53.480;9.688;2022-11-18T03:22:59;16.43;;;12.40;;
2406;SDS011;37709;53.480;9.688;2022-11-18T03:25:43;18.10;;;12.37;;
2406;SDS011;37709;53.480;9.688;2022-11-18T03:28:17;14.70;;;11.53;;
2406;SDS011;37709;53.480;9.688;2022-11-18T03:31:05;18.70;;;12.90;;
2406;SDS011;37709;53.480;9.688;2022-11-18T03:34:02;20.77;;;13.37;;
2406;SDS011;37709;53.480;9.688;2022-11-18T03:36:37;21.53;;;14.83;;
2406;SDS011;37709;53.480;9.688;2022-11-18T03:39:09;18.27;;;13.90;;
2406;SDS011;37709;53.480;9.688;2022-11-18T03:41:39;22.53;;;15.37;;
2406;SDS011;37709;53.480;9.688;2022-11-18T03:44:16;17.33;;;13.67;;
2406;SDS011;37709;53.480;9.688;2022-11-18T03:46:50;20.87;;;13.13;;
2406;SDS011;37709;53.480;9.688;2022-11-18T03:49:27;22.83;;;14.93;;
2406;SDS011;37709;53.480;9.688;2022-11-18T03:52:00;23.67;;;15.43;;
2406;SDS011;37709;53.480;9.688;2022-11-18T03:54:33;18.07;;;12.37;;
2406;SDS011;37709;53.480;9.688;2022-11-18T03:57:11;23.30;;;16.27;;
2406;SDS011;37709;53.480;9.688;2022-11-18T04:00:03;18.40;;;14.17;;
2406;SDS011;37709;53.480;9.688;2022-11-18T04:02:33;20.40;;;13.50;;
2406;SDS011;37709;53.480;9.688;2022-11-18T04:05:02;22.20;;;16.10;;
2406;SDS011;37709;53.480;9.688;2022-11-18T04:07:48;18.67;;;13.60;;
2406;SDS011;37709;53.480;9.688;2022-11-18T04:10:34;18.20;;;11.80;;
2406;SDS011;37709;53.480;9.688;2022-11-18T04:13:09;22.43;;;15.17;;
2406;SDS011;37709;53.480;9.688;2022-11-18T04:15:47;20.40;;;14.53;;
2406;SDS011;37709;53.480;9.688;2022-11-18T04:18:15;22.97;;;15.60;;
2406;SDS011;37709;53.480;9.688;2022-11-18T04:20:44;19.83;;;15.07;;
2406;SDS011;37709;53.480;9.688;2022-11-18T04:23:11;18.10;;;13.43;;
2406;SDS011;37709;53.480;9.688;2022-11-18T04:25:38;21.80;;;16.10;;
2406;SDS011;37709;53.480;9.688;2022-11-18T04:28:08;19.10;;;13.07;;
2406;SDS011;37709;53.480;9.688;2022-11-18T04:30:36;26.40;;;17.07;;
2406;SDS011;37709;53.480;9.688;2022-11-18T04:33:04;24.27;;;17.07;;
2406;SDS011;37709;53.480;9.688;2022-11-18T04:35:32;18.60;;;12.40;;
2406;SDS011;37709;53.480;9.688;2022-11-18T04:38:03;24.27;;;16.30;;
2406;SDS011;37709;53.480;9.688;2022-11-18T04:40:31;21.07;;;14.90;;
2406;SDS011;37709;53.480;9.688;2022-11-18T04:42:58;23.73;;;16.13;;
2406;SDS011;37709;53.480;9.688;2022-11-18T04:45:27;19.20;;;14.40;;
2406;SDS011;37709;53.480;9.688;2022-11-18T04:47:54;20.33;;;14.90;;
2406;SDS011;37709;53.480;9.688;2022-11-18T04:50:29;24.13;;;16.30;;
2406;SDS011;37709;53.480;9.688;2022-11-18T04:52:57;23.87;;;16.20;;
2406;SDS011;37709;53.480;9.688;2022-11-18T04:55:24;23.87;;;15.90;;
2406;SDS011;37709;53.480;9.688;2022-11-18T05:00:49;21.90;;;15.17;;
2406;SDS011;37709;53.480;9.688;2022-11-18T05:03:16;20.00;;;14.20;;
2406;SDS011;37709;53.480;9.688;2022-11-18T05:05:43;18.60;;;13.10;;
2406;SDS011;37709;53.480;9.688;2022-11-18T05:08:12;25.37;;;17.67;;
2406;SDS011;37709;53.480;9.688;2022-11-18T05:10:39;19.60;;;13.37;;
2406;SDS011;37709;53.480;9.688;2022-11-18T05:13:06;20.37;;;14.20;;
2406;SDS011;37709;53.480;9.688;2022-11-18T05:15:33;19.07;;;12.73;;
2406;SDS011;37709;53.480;9.688;2022-11-18T05:18:01;21.83;;;15.40;;
2406;SDS011;37709;53.480;9.688;2022-11-18T05:20:28;21.50;;;15.70;;
2406;SDS011;37709;53.480;9.688;2022-11-18T05:22:56;21.67;;;13.80;;
2406;SDS011;37709;53.480;9.688;2022-11-18T05:25:23;14.60;;;10.90;;
2406;SDS011;37709;53.480;9.688;2022-11-18T05:27:50;16.00;;;10.60;;
2406;SDS011;37709;53.480;9.688;2022-11-18T05:30:17;16.90;;;13.30;;
2406;SDS011;37709;53.480;9.688;2022-11-18T05:32:45;20.23;;;14.97;;
2406;SDS011;37709;53.480;9.688;2022-11-18T05:35:15;19.00;;;14.77;;
2406;SDS011;37709;53.480;9.688;2022-11-18T05:37:42;20.90;;;14.87;;
2406;SDS011;37709;53.480;9.688;2022-11-18T05:40:09;18.47;;;13.53;;
2406;SDS011;37709;53.480;9.688;2022-11-18T05:42:37;21.00;;;14.27;;
2406;SDS011;37709;53.480;9.688;2022-11-18T05:45:22;21.87;;;16.60;;
2406;SDS011;37709;53.480;9.688;2022-11-18T05:47:50;18.37;;;13.30;;
2406;SDS011;37709;53.480;9.688;2022-11-18T05:50:27;18.87;;;13.87;;
2406;SDS011;37709;53.480;9.688;2022-11-18T05:56:00;23.07;;;15.70;;
2406;SDS011;37709;53.480;9.688;2022-11-18T05:58:32;18.40;;;13.43;;
2406;SDS011;37709;53.480;9.688;2022-11-18T06:01:03;18.43;;;12.70;;
2406;SDS011;37709;53.480;9.688;2022-11-18T06:03:34;22.90;;;13.83;;
2406;SDS011;37709;53.480;9.688;2022-11-18T06:06:04;18.87;;;13.77;;
2406;SDS011;37709;53.480;9.688;2022-11-18T06:08:39;20.20;;;14.73;;
2406;SDS011;37709;53.480;9.688;2022-11-18T06:11:14;19.73;;;15.83;;
2406;SDS011;37709;53.480;9.688;2022-11-18T06:13:46;20.47;;;14.50;;
2406;SDS011;37709;53.480;9.688;2022-11-18T06:16:21;20.60;;;15.33;;
2406;SDS011;37709;53.480;9.688;2022-11-18T06:18:52;21.43;;;15.97;;
2406;SDS011;37709;53.480;9.688;2022-11-18T06:21:19;31.20;;;20.80;;
2406;SDS011;37709;53.480;9.688;2022-11-18T06:23:47;24.03;;;17.57;;
2406;SDS011;37709;53.480;9.688;2022-11-18T06:26:14;22.47;;;16.83;;
2406;SDS011;37709;53.480;9.688;2022-11-18T06:28:43;17.37;;;12.17;;
2406;SDS011;37709;53.480;9.688;2022-11-18T06:31:12;25.57;;;17.77;;
2406;SDS011;37709;53.480;9.688;2022-11-18T06:33:39;24.33;;;16.37;;
2406;SDS011;37709;53.480;9.688;2022-11-18T06:36:07;23.17;;;16.33;;
2406;SDS011;37709;53.480;9.688;2022-11-18T06:38:35;22.73;;;17.37;;
2406;SDS011;37709;53.480;9.688;2022-11-18T06:41:02;17.93;;;12.90;;
2406;SDS011;37709;53.480;9.688;2022-11-18T06:43:29;18.40;;;13.30;;
2406;SDS011;37709;53.480;9.688;2022-11-18T06:46:16;20.70;;;14.33;;
2406;SDS011;37709;53.480;9.688;2022-11-18T06:49:02;19.83;;;14.63;;
2406;SDS011;37709;53.480;9.688;2022-11-18T06:51:29;24.20;;;16.67;;
2406;SDS011;37709;53.480;9.688;2022-11-18T06:53:59;24.33;;;17.63;;
2406;SDS011;37709;53.480;9.688;2022-11-18T06:56:27;23.90;;;17.27;;
2406;SDS011;37709;53.480;9.688;2022-11-18T06:58:57;23.60;;;16.67;;
2406;SDS011;37709;53.480;9.688;2022-11-18T07:01:25;25.07;;;17.37;;
2406;SDS011;37709;53.480;9.688;2022-11-18T07:03:56;23.07;;;14.33;;
2406;SDS011;37709;53.480;9.688;2022-11-18T07:06:26;23.07;;;16.30;;
2406;SDS011;37709;53.480;9.688;2022-11-18T07:11:47;21.57;;;14.17;;
2406;SDS011;37709;53.480;9.688;2022-11-18T07:14:14;29.53;;;19.30;;
2406;SDS011;37709;53.480;9.688;2022-11-18T07:16:42;22.37;;;14.70;;
2406;SDS011;37709;53.480;9.688;2022-11-18T07:19:11;23.83;;;15.90;;
2406;SDS011;37709;53.480;9.688;2022-11-18T07:21:40;25.57;;;17.90;;
2406;SDS011;37709;53.480;9.688;2022-11-18T07:24:11;24.97;;;16.80;;
2406;SDS011;37709;53.480;9.688;2022-11-18T07:26:40;22.23;;;14.17;;
2406;SDS011;37709;53.480;9.688;2022-11-18T07:29:08;23.67;;;16.60;;
2406;SDS011;37709;53.480;9.688;2022-11-18T07:31:35;26.13;;;17.33;;
2406;SDS011;37709;53.480;9.688;2022-11-18T07:34:05;23.97;;;17.10;;
2406;SDS011;37709;53.480;9.688;2022-11-18T07:36:33;25.13;;;17.03;;
2406;SDS011;37709;53.480;9.688;2022-11-18T07:39:03;26.43;;;18.37;;
2406;SDS011;37709;53.480;9.688;2022-11-18T07:41:32;26.10;;;16.87;;
2406;SDS011;37709;53.480;9.688;2022-11-18T07:44:01;25.87;;;18.43;;
2406;SDS011;37709;53.480;9.688;2022-11-18T07:46:30;24.00;;;16.27;;
2406;SDS011;37709;53.480;9.688;2022-11-18T07:49:03;29.53;;;18.37;;
2406;SDS011;37709;53.480;9.688;2022-11-18T07:51:33;26.00;;;19.10;;
2406;SDS011;37709;53.480;9.688;2022-11-18T07:54:08;26.20;;;18.40;;
2406;SDS011;37709;53.480;9.688;2022-11-18T07:56:36;24.03;;;16.53;;
2406;SDS011;37709;53.480;9.688;2022-11-18T07:59:03;22.87;;;15.37;;
2406;SDS011;37709;53.480;9.688;2022-11-18T08:01:31;20.63;;;13.07;;
2406;SDS011;37709;53.480;9.688;2022-11-18T08:04:06;26.23;;;17.63;;
2406;SDS011;37709;53.480;9.688;2022-11-18T08:06:35;22.43;;;15.40;;
2406;SDS011;37709;53.480;9.688;2022-11-18T08:09:03;27.63;;;18.17;;
2406;SDS011;37709;53.480;9.688;2022-11-18T08:11:32;27.07;;;19.53;;
2406;SDS011;37709;53.480;9.688;2022-11-18T08:13:59;25.57;;;15.47;;
2406;SDS011;37709;53.480;9.688;2022-11-18T08:16:27;25.67;;;17.80;;
2406;SDS011;37709;53.480;9.688;2022-11-18T08:18:58;25.07;;;17.17;;
2406;SDS011;37709;53.480;9.688;2022-11-18T08:21:26;25.23;;;18.13;;
2406;SDS011;37709;53.480;9.688;2022-11-18T08:23:55;26.17;;;17.67;;
2406;SDS011;37709;53.480;9.688;2022-11-18T08:26:24;28.00;;;18.40;;
2406;SDS011;37709;53.480;9.688;2022-11-18T08:28:55;26.90;;;18.50;;
2406;SDS011;37709;53.480;9.688;2022-11-18T08:31:25;19.20;;;13.40;;
2406;SDS011;37709;53.480;9.688;2022-11-18T08:33:59;28.45;;;23.15;;
2406;SDS011;37709;53.480;9.688;2022-11-18T08:36:32;24.50;;;19.40;;
2406;SDS011;37709;53.480;9.688;2022-11-18T08:39:02;21.23;;;16.63;;
2406;SDS011;37709;53.480;9.688;2022-11-18T08:41:31;26.77;;;18.17;;
2406;SDS011;37709;53.480;9.688;2022-11-18T08:44:03;22.60;;;15.80;;
2406;SDS011;37709;53.480;9.688;2022-11-18T08:46:32;21.90;;;15.80;;
2406;SDS011;37709;53.480;9.688;2022-11-18T08:48:59;19.03;;;13.43;;
2406;SDS011;37709;53.480;9.688;2022-11-18T08:51:26;21.87;;;17.63;;
2406;SDS011;37709;53.480;9.688;2022-11-18T08:53:54;14.47;;;10.50;;
2406;SDS011;37709;53.480;9.688;2022-11-18T08:56:22;20.83;;;14.97;;
2406;SDS011;37709;53.480;9.688;2022-11-18T08:58:50;23.52;;;20.05;;
2406;SDS011;37709;53.480;9.688;2022-11-18T09:01:18;20.23;;;15.80;;
2406;SDS011;37709;53.480;9.688;2022-11-18T09:03:47;22.00;;;16.90;;
2406;SDS011;37709;53.480;9.688;2022-11-18T09:06:15;13.13;;;9.70;;
2406;SDS011;37709;53.480;9.688;2022-11-18T09:08:45;20.50;;;15.17;;
2406;SDS011;37709;53.480;9.688;2022-11-18T09:11:16;21.98;;;18.20;;
2406;SDS011;37709;53.480;9.688;2022-11-18T09:13:45;21.90;;;17.33;;
2406;SDS011;37709;53.480;9.688;2022-11-18T09:16:34;21.23;;;18.80;;
2406;SDS011;37709;53.480;9.688;2022-11-18T09:19:02;22.73;;;15.83;;
2406;SDS011;37709;53.480;9.688;2022-11-18T09:21:49;18.70;;;15.70;;
2406;SDS011;37709;53.480;9.688;2022-11-18T09:24:17;20.03;;;14.60;;
2406;SDS011;37709;53.480;9.688;2022-11-18T09:26:45;15.97;;;12.27;;
2406;SDS011;37709;53.480;9.688;2022-11-18T09:29:15;19.87;;;14.83;;
2406;SDS011;37709;53.480;9.688;2022-11-18T09:31:42;19.17;;;14.50;;
2406;SDS011;37709;53.480;9.688;2022-11-18T09:34:09;19.53;;;15.07;;
2406;SDS011;37709;53.480;9.688;2022-11-18T09:36:41;20.53;;;14.90;;
2406;SDS011;37709;53.480;9.688;2022-11-18T09:39:09;19.80;;;15.60;;
2406;SDS011;37709;53.480;9.688;2022-11-18T09:47:14;19.37;;;13.27;;
2406;SDS011;37709;53.480;9.688;2022-11-18T09:49:53;16.73;;;13.20;;
2406;SDS011;37709;53.480;9.688;2022-11-18T09:55:42;18.30;;;14.00;;
2406;SDS011;37709;53.480;9.688;2022-11-18T09:58:14;18.97;;;14.87;;
2406;SDS011;37709;53.480;9.688;2022-11-18T10:00:46;18.83;;;13.37;;
2406;SDS011;37709;53.480;9.688;2022-11-18T10:11:09;17.03;;;14.43;;
2406;SDS011;37709;53.480;9.688;2022-11-18T10:25:15;17.27;;;13.73;;
2406;SDS011;37709;53.480;9.688;2022-11-18T10:27:44;16.80;;;13.23;;
2406;SDS011;37709;53.480;9.688;2022-11-18T10:30:15;19.40;;;13.70;;
2406;SDS011;37709;53.480;9.688;2022-11-18T10:32:56;17.73;;;13.20;;
2406;SDS011;37709;53.480;9.688;2022-11-18T10:35:35;15.80;;;14.00;;
2406;SDS011;37709;53.480;9.688;2022-11-18T10:38:05;17.50;;;14.00;;
2406;SDS011;37709;53.480;9.688;2022-11-18T10:46:27;15.23;;;11.93;;
2406;SDS011;37709;53.480;9.688;2022-11-18T10:49:09;14.57;;;10.43;;
2406;SDS011;37709;53.480;9.688;2022-11-18T10:52:07;15.70;;;11.90;;
2406;SDS011;37709;53.480;9.688;2022-11-18T10:54:37;15.63;;;12.03;;
2406;SDS011;37709;53.480;9.688;2022-11-18T10:59:44;12.70;;;9.77;;
2406;SDS011;37709;53.480;9.688;2022-11-18T11:02:17;14.60;;;11.50;;
2406;SDS011;37709;53.480;9.688;2022-11-18T11:04:49;13.90;;;10.60;;
2406;SDS011;37709;53.480;9.688;2022-11-18T11:07:25;8.80;;;7.27;;
2406;SDS011;37709;53.480;9.688;2022-11-18T11:10:00;12.03;;;10.27;;
2406;SDS011;37709;53.480;9.688;2022-11-18T11:12:34;12.40;;;10.77;;
2406;SDS011;37709;53.480;9.688;2022-11-18T11:15:15;13.55;;;11.80;;
2406;SDS011;37709;53.480;9.688;2022-11-18T11:18:14;11.77;;;10.57;;
2406;SDS011;37709;53.480;9.688;2022-11-18T11:21:16;10.40;;;8.90;;
2406;SDS011;37709;53.480;9.688;2022-11-18T11:26:45;12.00;;;10.30;;
2406;SDS011;37709;53.480;9.688;2022-11-18T11:30:00;11.50;;;9.77;;
2406;SDS011;37709;53.480;9.688;2022-11-18T11:41:01;9.90;;;7.50;;
2406;SDS011;37709;53.480;9.688;2022-11-18T11:43:40;10.87;;;9.57;;
2406;SDS011;37709;53.480;9.688;2022-11-18T11:49:59;9.73;;;8.20;;
2406;SDS011;37709;53.480;9.688;2022-11-18T11:59:33;9.50;;;7.30;;
2406;SDS011;37709;53.480;9.688;2022-11-18T12:02:32;10.30;;;8.10;;
2406;SDS011;37709;53.480;9.688;2022-11-18T12:05:16;7.93;;;6.90;;
2406;SDS011;37709;53.480;9.688;2022-11-18T12:08:09;12.63;;;9.13;;
2406;SDS011;37709;53.480;9.688;2022-11-18T12:13:20;8.57;;;7.67;;
2406;SDS011;37709;53.480;9.688;2022-11-18T12:16:03;8.13;;;7.33;;
2406;SDS011;37709;53.480;9.688;2022-11-18T12:26:49;8.03;;;6.23;;
2406;SDS011;37709;53.480;9.688;2022-11-18T12:31:49;9.27;;;7.77;;
2406;SDS011;37709;53.480;9.688;2022-11-18T12:34:27;8.17;;;7.33;;
2406;SDS011;37709;53.480;9.688;2022-11-18T12:42:32;10.60;;;7.70;;
2406;SDS011;37709;53.480;9.688;2022-11-18T12:48:29;7.40;;;6.60;;
2406;SDS011;37709;53.480;9.688;2022-11-18T12:53:43;6.60;;;5.67;;
2406;SDS011;37709;53.480;9.688;2022-11-18T12:56:21;7.77;;;6.97;;
2406;SDS011;37709;53.480;9.688;2022-11-18T12:58:52;8.73;;;6.77;;
2406;SDS011;37709;53.480;9.688;2022-11-18T13:01:33;7.50;;;6.70;;
2406;SDS011;37709;53.480;9.688;2022-11-18T13:04:08;9.50;;;6.87;;
2406;SDS011;37709;53.480;9.688;2022-11-18T13:06:43;6.80;;;6.10;;
2406;SDS011;37709;53.480;9.688;2022-11-18T13:09:15;5.97;;;5.37;;
2406;SDS011;37709;53.480;9.688;2022-11-18T13:11:52;7.33;;;5.97;;
2406;SDS011;37709;53.480;9.688;2022-11-18T13:14:27;7.23;;;6.50;;
2406;SDS011;37709;53.480;9.688;2022-11-18T13:23:00;7.10;;;6.40;;
2406;SDS011;37709;53.480;9.688;2022-11-18T13:25:49;6.90;;;6.03;;
2406;SDS011;37709;53.480;9.688;2022-11-18T13:28:19;7.60;;;6.23;;
2406;SDS011;37709;53.480;9.688;2022-11-18T13:31:04;5.63;;;4.73;;
2406;SDS011;37709;53.480;9.688;2022-11-18T13:33:52;6.80;;;5.83;;
2406;SDS011;37709;53.480;9.688;2022-11-18T13:36:21;5.57;;;4.97;;
2406;SDS011;37709;53.480;9.688;2022-11-18T13:38:54;6.67;;;5.43;;
2406;SDS011;37709;53.480;9.688;2022-11-18T13:41:34;4.30;;;3.90;;
2406;SDS011;37709;53.480;9.688;2022-11-18T13:44:11;6.43;;;5.73;;
2406;SDS011;37709;53.480;9.688;2022-11-18T13:46:51;6.60;;;4.90;;
2406;SDS011;37709;53.480;9.688;2022-11-18T13:49:23;6.17;;;5.30;;
2406;SDS011;37709;53.480;9.688;2022-11-18T13:52:18;6.77;;;5.70;;
2406;SDS011;37709;53.480;9.688;2022-11-18T13:54:54;6.03;;;4.80;;
2406;SDS011;37709;53.480;9.688;2022-11-18T13:57:25;5.80;;;5.17;;
2406;SDS011;37709;53.480;9.688;2022-11-18T13:59:54;6.23;;;5.73;;
2406;SDS011;37709;53.480;9.688;2022-11-18T14:02:31;5.80;;;4.60;;
2406;SDS011;37709;53.480;9.688;2022-11-18T14:05:03;5.23;;;4.70;;
2406;SDS011;37709;53.480;9.688;2022-11-18T14:07:32;7.73;;;4.80;;
2406;SDS011;37709;53.480;9.688;2022-11-18T14:10:05;6.50;;;4.73;;
2406;SDS011;37709;53.480;9.688;2022-11-18T14:12:34;8.10;;;5.43;;
2406;SDS011;37709;53.480;9.688;2022-11-18T14:17:50;6.23;;;5.30;;
2406;SDS011;37709;53.480;9.688;2022-11-18T14:20:20;6.20;;;4.83;;
2406;SDS011;37709;53.480;9.688;2022-11-18T14:22:52;5.77;;;5.17;;
2406;SDS011;37709;53.480;9.688;2022-11-18T14:25:23;5.20;;;4.70;;
2406;SDS011;37709;53.480;9.688;2022-11-18T14:27:54;6.47;;;5.73;;
2406;SDS011;37709;53.480;9.688;2022-11-18T14:35:44;6.70;;;5.97;;
2406;SDS011;37709;53.480;9.688;2022-11-18T14:38:17;6.73;;;5.53;;
2406;SDS011;37709;53.480;9.688;2022-11-18T14:41:07;6.27;;;5.23;;
2406;SDS011;37709;53.480;9.688;2022-11-18T14:43:36;6.10;;;5.50;;
2406;SDS011;37709;53.480;9.688;2022-11-18T14:46:06;6.00;;;5.40;;
2406;SDS011;37709;53.480;9.688;2022-11-18T14:48:44;8.57;;;6.17;;
2406;SDS011;37709;53.480;9.688;2022-11-18T14:51:12;7.63;;;5.53;;
2406;SDS011;37709;53.480;9.688;2022-11-18T14:53:42;5.70;;;5.10;;
2406;SDS011;37709;53.480;9.688;2022-11-18T14:56:17;7.37;;;6.03;;
2406;SDS011;37709;53.480;9.688;2022-11-18T14:58:49;7.97;;;6.20;;
2406;SDS011;37709;53.480;9.688;2022-11-18T15:01:19;6.37;;;5.30;;
2406;SDS011;37709;53.480;9.688;2022-11-18T15:03:52;8.47;;;6.57;;
2406;SDS011;37709;53.480;9.688;2022-11-18T15:06:19;6.20;;;5.53;;
2406;SDS011;37709;53.480;9.688;2022-11-18T15:08:49;7.70;;;5.67;;
2406;SDS011;37709;53.480;9.688;2022-11-18T15:11:17;7.90;;;6.67;;
2406;SDS011;37709;53.480;9.688;2022-11-18T15:13:48;8.30;;;6.53;;
2406;SDS011;37709;53.480;9.688;2022-11-18T15:16:20;8.60;;;6.33;;
2406;SDS011;37709;53.480;9.688;2022-11-18T15:18:50;8.03;;;6.43;;
2406;SDS011;37709;53.480;9.688;2022-11-18T15:21:19;8.03;;;7.23;;
2406;SDS011;37709;53.480;9.688;2022-11-18T15:23:47;9.27;;;6.97;;
2406;SDS011;37709;53.480;9.688;2022-11-18T15:26:21;7.50;;;6.60;;
2406;SDS011;37709;53.480;9.688;2022-11-18T15:28:54;7.37;;;5.90;;
2406;SDS011;37709;53.480;9.688;2022-11-18T15:31:23;8.50;;;6.27;;
2406;SDS011;37709;53.480;9.688;2022-11-18T15:33:50;8.20;;;6.80;;
2406;SDS011;37709;53.480;9.688;2022-11-18T15:36:19;8.23;;;6.83;;
2406;SDS011;37709;53.480;9.688;2022-11-18T15:38:49;7.83;;;6.87;;
2406;SDS011;37709;53.480;9.688;2022-11-18T15:41:21;8.57;;;7.20;;
2406;SDS011;37709;53.480;9.688;2022-11-18T15:43:51;8.83;;;6.80;;
2406;SDS011;37709;53.480;9.688;2022-11-18T15:46:21;10.53;;;7.80;;
2406;SDS011;37709;53.480;9.688;2022-11-18T15:48:50;10.90;;;8.70;;
2406;SDS011;37709;53.480;9.688;2022-11-18T15:51:21;8.10;;;7.07;;
2406;SDS011;37709;53.480;9.688;2022-11-18T15:53:49;8.70;;;7.33;;
2406;SDS011;37709;53.480;9.688;2022-11-18T16:01:26;8.30;;;7.40;;
2406;SDS011;37709;53.480;9.688;2022-11-18T16:03:55;8.43;;;6.70;;
2406;SDS011;37709;53.480;9.688;2022-11-18T16:06:23;8.93;;;8.00;;
2406;SDS011;37709;53.480;9.688;2022-11-18T16:08:51;10.07;;;7.50;;
2406;SDS011;37709;53.480;9.688;2022-11-18T16:11:25;8.67;;;7.80;;
2406;SDS011;37709;53.480;9.688;2022-11-18T16:14:13;8.77;;;7.70;;
2406;SDS011;37709;53.480;9.688;2022-11-18T16:16:44;9.57;;;6.80;;
2406;SDS011;37709;53.480;9.688;2022-11-18T16:19:13;11.03;;;8.07;;
2406;SDS011;37709;53.480;9.688;2022-11-18T16:21:43;10.13;;;7.47;;
2406;SDS011;37709;53.480;9.688;2022-11-18T16:24:14;9.20;;;7.70;;
2406;SDS011;37709;53.480;9.688;2022-11-18T16:26:44;9.80;;;7.10;;
2406;SDS011;37709;53.480;9.688;2022-11-18T16:29:12;8.80;;;7.83;;
2406;SDS011;37709;53.480;9.688;2022-11-18T16:31:45;11.43;;;7.63;;
2406;SDS011;37709;53.480;9.688;2022-11-18T16:36:46;10.73;;;7.20;;
2406;SDS011;37709;53.480;9.688;2022-11-18T16:39:19;8.33;;;7.43;;
2406;SDS011;37709;53.480;9.688;2022-11-18T16:41:51;9.97;;;8.37;;
2406;SDS011;37709;53.480;9.688;2022-11-18T16:44:23;10.13;;;7.83;;
2406;SDS011;37709;53.480;9.688;2022-11-18T16:46:51;9.63;;;7.40;;
2406;SDS011;37709;53.480;9.688;2022-11-18T16:49:20;8.23;;;7.40;;
2406;SDS011;37709;53.480;9.688;2022-11-18T16:51:52;8.87;;;7.40;;
2406;SDS011;37709;53.480;9.688;2022-11-18T16:54:22;8.03;;;6.87;;
2406;SDS011;37709;53.480;9.688;2022-11-18T16:56:54;9.97;;;7.23;;
2406;SDS011;37709;53.480;9.688;2022-11-18T16:59:24;10.53;;;7.27;;
2406;SDS011;37709;53.480;9.688;2022-11-18T17:01:53;11.97;;;7.80;;
2406;SDS011;37709;53.480;9.688;2022-11-18T17:04:22;10.67;;;7.90;;
2406;SDS011;37709;53.480;9.688;2022-11-18T17:06:51;10.10;;;6.97;;
2406;SDS011;37709;53.480;9.688;2022-11-18T17:09:20;7.90;;;7.10;;
2406;SDS011;37709;53.480;9.688;2022-11-18T17:11:52;8.80;;;7.07;;
2406;SDS011;37709;53.480;9.688;2022-11-18T17:14:21;10.57;;;7.43;;
2406;SDS011;37709;53.480;9.688;2022-11-18T17:16:51;8.63;;;7.53;;
2406;SDS011;37709;53.480;9.688;2022-11-18T17:19:19;9.53;;;7.27;;
2406;SDS011;37709;53.480;9.688;2022-11-18T17:21:49;10.70;;;8.60;;
2406;SDS011;37709;53.480;9.688;2022-11-18T17:27:10;8.83;;;7.57;;
2406;SDS011;37709;53.480;9.688;2022-11-18T17:29:37;9.57;;;7.40;;
2406;SDS011;37709;53.480;9.688;2022-11-18T17:32:04;10.87;;;7.77;;